sensor_id;sensor_type;location;lat;lon;timestamp;pressure;altitude;pressure_sealevel;temperature;humidity
18813;BME280;9534;51.140;6.296;2023-04-15T00:03:50;99702.16;;;6.08;100.00
18813;BME280;9534;51.140;6.296;2023-04-15T00:07:54;99705.75;;;6.14;100.00
18813;BME280;9534;51.140;6.296;2023-04-15T00:11:59;99694.47;;;6.05;100.00
18813;BME280;9534;51.140;6.296;2023-04-15T00:16:03;99700.63;;;5.86;100.00
18813;BME280;9534;51.140;6.296;2023-04-15T00:20:06;99699.06;;;5.70;100.00
18813;BME280;9534;51.140;6.296;2023-04-15T00:24:09;99700.50;;;5.60;100.00
18813;BME280;9534;51.140;6.296;2023-04-15T00:28:14;99702.56;;;5.58;100.00
18813;BME280;9534;51.140;6.296;2023-04-15T00:32:18;99700.25;;;5.55;100.00
18813;BME280;9534;51.140;6.296;2023-04-15T00:36:21;99689.25;;;5.63;100.00
18813;BME280;9534;51.140;6.296;2023-04-15T00:40:25;99701.75;;;5.57;100.00
18813;BME280;9534;51.140;6.296;2023-04-15T00:44:30;99699.19;;;5.49;100.00
18813;BME280;9534;51.140;6.296;2023-04-15T00:48:33;99699.75;;;5.38;100.00
18813;BME280;9534;51.140;6.296;2023-04-15T00:52:36;99710.38;;;5.33;100.00
18813;BME280;9534;51.140;6.296;2023-04-15T00:56:40;99713.81;;;5.21;100.00
18813;BME280;9534;51.140;6.296;2023-04-15T01:00:45;99710.59;;;5.04;100.00
18813;BME280;9534;51.140;6.296;2023-04-15T01:04:48;99713.13;;;5.06;100.00
18813;BME280;9534;51.140;6.296;2023-04-15T01:08:52;99709.28;;;4.94;100.00
18813;BME280;9534;51.140;6.296;2023-04-15T01:12:56;99715.25;;;4.89;100.00
18813;BME280;9534;51.140;6.296;2023-04-15T01:17:01;99722.06;;;4.79;100.00
18813;BME280;9534;51.140;6.296;2023-04-15T01:21:05;99712.91;;;4.80;100.00
18813;BME280;9534;51.140;6.296;2023-04-15T01:25:14;99722.84;;;4.73;100.00
18813;BME280;9534;51.140;6.296;2023-04-15T01:29:20;99724.41;;;4.61;100.00
18813;BME280;9534;51.140;6.296;2023-04-15T01:33:24;99730.03;;;4.60;100.00
18813;BME280;9534;51.140;6.296;2023-04-15T01:37:47;99729.00;;;4.61;100.00
18813;BME280;9534;51.140;6.296;2023-04-15T01:41:51;99732.78;;;4.45;100.00
18813;BME280;9534;51.140;6.296;2023-04-15T01:45:57;99727.50;;;4.37;100.00
18813;BME280;9534;51.140;6.296;2023-04-15T01:50:03;99734.09;;;4.28;100.00
18813;BME280;9534;51.140;6.296;2023-04-15T01:54:07;99732.25;;;4.35;100.00
18813;BME280;9534;51.140;6.296;2023-04-15T01:58:12;99729.63;;;4.21;100.00
18813;BME280;9534;51.140;6.296;2023-04-15T02:02:18;99729.94;;;4.11;100.00
18813;BME280;9534;51.140;6.296;2023-04-15T02:06:23;99735.34;;;4.11;100.00
18813;BME280;9534;51.140;6.296;2023-04-15T02:10:27;99736.59;;;3.94;100.00
18813;BME280;9534;51.140;6.296;2023-04-15T02:14:33;99742.66;;;3.96;100.00
18813;BME280;9534;51.140;6.296;2023-04-15T02:18:39;99738.50;;;3.79;100.00
18813;BME280;9534;51.140;6.296;2023-04-15T02:22:45;99738.50;;;3.79;100.00
18813;BME280;9534;51.140;6.296;2023-04-15T02:26:50;99749.97;;;3.81;100.00
18813;BME280;9534;51.140;6.296;2023-04-15T02:30:55;99749.41;;;3.71;100.00
18813;BME280;9534;51.140;6.296;2023-04-15T02:35:03;99745.03;;;3.70;100.00
18813;BME280;9534;51.140;6.296;2023-04-15T02:39:07;99744.84;;;3.58;100.00
18813;BME280;9534;51.140;6.296;2023-04-15T02:43:13;99751.13;;;3.58;100.00
18813;BME280;9534;51.140;6.296;2023-04-15T02:47:19;99746.53;;;3.59;100.00
18813;BME280;9534;51.140;6.296;2023-04-15T02:51:25;99762.75;;;3.59;100.00
18813;BME280;9534;51.140;6.296;2023-04-15T02:55:34;99756.81;;;3.49;100.00
18813;BME280;9534;51.140;6.296;2023-04-15T02:59:39;99769.31;;;3.50;100.00
18813;BME280;9534;51.140;6.296;2023-04-15T03:03:43;99774.06;;;3.48;100.00
18813;BME280;9534;51.140;6.296;2023-04-15T03:07:49;99768.75;;;3.40;100.00
18813;BME280;9534;51.140;6.296;2023-04-15T03:11:56;99771.78;;;3.22;100.00
18813;BME280;9534;51.140;6.296;2023-04-15T03:16:00;99776.53;;;3.06;100.00
18813;BME280;9534;51.140;6.296;2023-04-15T03:20:07;99785.56;;;2.98;100.00
18813;BME280;9534;51.140;6.296;2023-04-15T03:24:13;99789.03;;;3.07;100.00
18813;BME280;9534;51.140;6.296;2023-04-15T03:28:19;99782.97;;;3.05;100.00
18813;BME280;9534;51.140;6.296;2023-04-15T03:32:24;99774.50;;;3.22;100.00
18813;BME280;9534;51.140;6.296;2023-04-15T03:36:30;99784.94;;;3.11;100.00
18813;BME280;9534;51.140;6.296;2023-04-15T03:40:37;99784.53;;;2.99;100.00
18813;BME280;9534;51.140;6.296;2023-04-15T03:44:41;99784.72;;;2.98;100.00
18813;BME280;9534;51.140;6.296;2023-04-15T03:48:46;99791.34;;;2.95;100.00
18813;BME280;9534;51.140;6.296;2023-04-15T03:52:50;99793.78;;;3.05;100.00
18813;BME280;9534;51.140;6.296;2023-04-15T03:56:56;99788.78;;;3.31;100.00
18813;BME280;9534;51.140;6.296;2023-04-15T04:01:00;99789.53;;;3.54;100.00
18813;BME280;9534;51.140;6.296;2023-04-15T04:05:05;99801.56;;;3.66;100.00
18813;BME280;9534;51.140;6.296;2023-04-15T04:09:10;99803.72;;;3.70;100.00
18813;BME280;9534;51.140;6.296;2023-04-15T04:13:15;99806.72;;;3.75;100.00
18813;BME280;9534;51.140;6.296;2023-04-15T04:17:20;99807.34;;;3.91;100.00
18813;BME280;9534;51.140;6.296;2023-04-15T04:21:24;99812.63;;;4.14;100.00
18813;BME280;9534;51.140;6.296;2023-04-15T04:25:29;99809.16;;;4.34;100.00
18813;BME280;9534;51.140;6.296;2023-04-15T04:29:37;99817.66;;;4.31;100.00
18813;BME280;9534;51.140;6.296;2023-04-15T04:33:41;99810.34;;;4.32;100.00
18813;BME280;9534;51.140;6.296;2023-04-15T04:37:45;99816.09;;;4.43;100.00
18813;BME280;9534;51.140;6.296;2023-04-15T04:41:50;99819.06;;;4.48;100.00
18813;BME280;9534;51.140;6.296;2023-04-15T04:45:56;99822.25;;;4.52;100.00
18813;BME280;9534;51.140;6.296;2023-04-15T04:50:00;99824.72;;;4.68;100.00
18813;BME280;9534;51.140;6.296;2023-04-15T04:54:05;99824.13;;;4.72;100.00
18813;BME280;9534;51.140;6.296;2023-04-15T04:58:09;99820.00;;;4.76;100.00
18813;BME280;9534;51.140;6.296;2023-04-15T05:02:15;99822.50;;;4.78;100.00
18813;BME280;9534;51.140;6.296;2023-04-15T05:06:20;99832.03;;;4.88;100.00
18813;BME280;9534;51.140;6.296;2023-04-15T05:10:24;99831.00;;;4.89;100.00
18813;BME280;9534;51.140;6.296;2023-04-15T05:14:29;99839.63;;;4.99;100.00
18813;BME280;9534;51.140;6.296;2023-04-15T05:18:35;99836.06;;;4.98;100.00
18813;BME280;9534;51.140;6.296;2023-04-15T05:22:40;99832.53;;;5.19;100.00
18813;BME280;9534;51.140;6.296;2023-04-15T05:26:44;99849.75;;;5.32;100.00
18813;BME280;9534;51.140;6.296;2023-04-15T05:30:49;99841.09;;;5.50;100.00
18813;BME280;9534;51.140;6.296;2023-04-15T05:34:55;99846.91;;;5.74;100.00
18813;BME280;9534;51.140;6.296;2023-04-15T05:38:59;99846.84;;;5.89;100.00
18813;BME280;9534;51.140;6.296;2023-04-15T05:43:04;99839.44;;;6.10;100.00
18813;BME280;9534;51.140;6.296;2023-04-15T05:47:08;99842.88;;;6.31;100.00
18813;BME280;9534;51.140;6.296;2023-04-15T05:51:14;99856.13;;;6.47;100.00
18813;BME280;9534;51.140;6.296;2023-04-15T05:55:19;99861.00;;;6.58;100.00
18813;BME280;9534;51.140;6.296;2023-04-15T05:59:24;99856.88;;;6.82;100.00
18813;BME280;9534;51.140;6.296;2023-04-15T06:03:29;99865.69;;;6.97;100.00
18813;BME280;9534;51.140;6.296;2023-04-15T06:07:35;99865.72;;;7.10;100.00
18813;BME280;9534;51.140;6.296;2023-04-15T06:11:40;99866.56;;;7.23;100.00
18813;BME280;9534;51.140;6.296;2023-04-15T06:15:44;99882.31;;;7.47;100.00
18813;BME280;9534;51.140;6.296;2023-04-15T06:19:48;99880.44;;;7.67;100.00
18813;BME280;9534;51.140;6.296;2023-04-15T06:24:01;99886.03;;;7.85;100.00
18813;BME280;9534;51.140;6.296;2023-04-15T06:28:06;99894.19;;;8.11;100.00
18813;BME280;9534;51.140;6.296;2023-04-15T06:32:10;99899.66;;;8.17;100.00
18813;BME280;9534;51.140;6.296;2023-04-15T06:36:15;99907.38;;;8.14;100.00
18813;BME280;9534;51.140;6.296;2023-04-15T06:40:21;99910.94;;;8.21;100.00
18813;BME280;9534;51.140;6.296;2023-04-15T06:44:25;99921.81;;;8.40;100.00
18813;BME280;9534;51.140;6.296;2023-04-15T06:48:29;99929.41;;;8.32;100.00
18813;BME280;9534;51.140;6.296;2023-04-15T06:52:34;99933.16;;;8.44;100.00
18813;BME280;9534;51.140;6.296;2023-04-15T06:56:39;99952.47;;;8.36;100.00
18813;BME280;9534;51.140;6.296;2023-04-15T07:00:44;99971.94;;;8.26;100.00
18813;BME280;9534;51.140;6.296;2023-04-15T07:04:48;99974.28;;;8.36;100.00
18813;BME280;9534;51.140;6.296;2023-04-15T07:08:53;99980.56;;;8.30;100.00
18813;BME280;9534;51.140;6.296;2023-04-15T07:12:59;99981.38;;;8.43;100.00
18813;BME280;9534;51.140;6.296;2023-04-15T07:17:04;99998.16;;;8.40;100.00
18813;BME280;9534;51.140;6.296;2023-04-15T07:21:09;100002.34;;;8.56;100.00
18813;BME280;9534;51.140;6.296;2023-04-15T07:25:13;100004.41;;;8.66;100.00
18813;BME280;9534;51.140;6.296;2023-04-15T07:29:19;100010.28;;;8.63;100.00
18813;BME280;9534;51.140;6.296;2023-04-15T07:33:23;100013.50;;;9.11;100.00
18813;BME280;9534;51.140;6.296;2023-04-15T07:37:28;100011.19;;;9.14;100.00
18813;BME280;9534;51.140;6.296;2023-04-15T07:41:32;100023.53;;;9.23;100.00
18813;BME280;9534;51.140;6.296;2023-04-15T07:45:38;100028.50;;;9.39;100.00
18813;BME280;9534;51.140;6.296;2023-04-15T07:49:42;100036.72;;;9.70;100.00
18813;BME280;9534;51.140;6.296;2023-04-15T07:53:48;100042.25;;;9.94;100.00
18813;BME280;9534;51.140;6.296;2023-04-15T07:57:54;100038.75;;;10.18;100.00
18813;BME280;9534;51.140;6.296;2023-04-15T08:02:00;100040.06;;;10.34;100.00
18813;BME280;9534;51.140;6.296;2023-04-15T08:06:04;100041.06;;;10.64;100.00
18813;BME280;9534;51.140;6.296;2023-04-15T08:10:09;100043.56;;;11.08;100.00
18813;BME280;9534;51.140;6.296;2023-04-15T08:14:14;100049.19;;;10.95;100.00
18813;BME280;9534;51.140;6.296;2023-04-15T08:18:20;100054.19;;;11.15;100.00
18813;BME280;9534;51.140;6.296;2023-04-15T08:22:24;100060.47;;;11.05;100.00
18813;BME280;9534;51.140;6.296;2023-04-15T08:26:29;100054.06;;;11.10;100.00
18813;BME280;9534;51.140;6.296;2023-04-15T08:30:34;100060.13;;;11.66;100.00
18813;BME280;9534;51.140;6.296;2023-04-15T08:34:40;100062.84;;;11.84;100.00
18813;BME280;9534;51.140;6.296;2023-04-15T08:38:44;100060.13;;;11.48;100.00
18813;BME280;9534;51.140;6.296;2023-04-15T08:42:51;100075.19;;;11.57;100.00
18813;BME280;9534;51.140;6.296;2023-04-15T08:47:00;100078.06;;;12.10;100.00
18813;BME280;9534;51.140;6.296;2023-04-15T08:51:07;100074.56;;;12.32;100.00
18813;BME280;9534;51.140;6.296;2023-04-15T08:55:12;100077.81;;;12.52;100.00
18813;BME280;9534;51.140;6.296;2023-04-15T08:59:18;100086.81;;;12.82;100.00
18813;BME280;9534;51.140;6.296;2023-04-15T09:03:24;100089.88;;;12.39;100.00
18813;BME280;9534;51.140;6.296;2023-04-15T09:07:32;100086.84;;;13.05;100.00
18813;BME280;9534;51.140;6.296;2023-04-15T09:11:37;100094.09;;;12.65;100.00
18813;BME280;9534;51.140;6.296;2023-04-15T09:15:41;100098.28;;;13.48;100.00
18813;BME280;9534;51.140;6.296;2023-04-15T09:19:46;100099.41;;;13.12;100.00
18813;BME280;9534;51.140;6.296;2023-04-15T09:23:56;100110.56;;;12.65;100.00
18813;BME280;9534;51.140;6.296;2023-04-15T09:28:01;100116.56;;;13.31;100.00
18813;BME280;9534;51.140;6.296;2023-04-15T09:32:10;100123.63;;;13.04;100.00
18813;BME280;9534;51.140;6.296;2023-04-15T09:36:15;100127.63;;;12.90;100.00
18813;BME280;9534;51.140;6.296;2023-04-15T09:40:34;100127.50;;;12.62;100.00
18813;BME280;9534;51.140;6.296;2023-04-15T09:44:39;100136.53;;;13.38;100.00
18813;BME280;9534;51.140;6.296;2023-04-15T09:48:44;100143.44;;;12.42;100.00
18813;BME280;9534;51.140;6.296;2023-04-15T09:52:48;100144.09;;;12.78;100.00
18813;BME280;9534;51.140;6.296;2023-04-15T09:56:54;100156.06;;;12.84;100.00
18813;BME280;9534;51.140;6.296;2023-04-15T10:00:59;100149.53;;;12.44;100.00
18813;BME280;9534;51.140;6.296;2023-04-15T10:05:05;100155.41;;;12.59;100.00
18813;BME280;9534;51.140;6.296;2023-04-15T10:09:11;100164.59;;;12.53;100.00
18813;BME280;9534;51.140;6.296;2023-04-15T10:13:19;100164.41;;;12.89;100.00
18813;BME280;9534;51.140;6.296;2023-04-15T10:17:26;100159.16;;;12.76;100.00
18813;BME280;9534;51.140;6.296;2023-04-15T10:21:34;100167.22;;;13.58;100.00
18813;BME280;9534;51.140;6.296;2023-04-15T10:25:40;100179.00;;;12.89;100.00
18813;BME280;9534;51.140;6.296;2023-04-15T10:29:46;100173.06;;;13.04;100.00
18813;BME280;9534;51.140;6.296;2023-04-15T10:33:52;100173.34;;;12.73;100.00
18813;BME280;9534;51.140;6.296;2023-04-15T10:37:57;100185.50;;;13.29;100.00
18813;BME280;9534;51.140;6.296;2023-04-15T10:42:06;100185.94;;;12.51;100.00
18813;BME280;9534;51.140;6.296;2023-04-15T10:46:12;100184.31;;;13.02;100.00
18813;BME280;9534;51.140;6.296;2023-04-15T10:50:17;100190.66;;;13.26;100.00
18813;BME280;9534;51.140;6.296;2023-04-15T10:54:30;100192.94;;;13.17;100.00
18813;BME280;9534;51.140;6.296;2023-04-15T10:58:41;100195.41;;;13.53;100.00
18813;BME280;9534;51.140;6.296;2023-04-15T11:02:51;100203.69;;;14.15;100.00
18813;BME280;9534;51.140;6.296;2023-04-15T11:07:04;100196.84;;;14.57;100.00
18813;BME280;9534;51.140;6.296;2023-04-15T11:11:09;100209.78;;;15.67;100.00
18813;BME280;9534;51.140;6.296;2023-04-15T11:15:28;100221.00;;;15.44;100.00
18813;BME280;9534;51.140;6.296;2023-04-15T11:19:38;100223.97;;;14.93;100.00
18813;BME280;9534;51.140;6.296;2023-04-15T11:23:43;100221.03;;;14.27;100.00
18813;BME280;9534;51.140;6.296;2023-04-15T11:27:49;100230.28;;;13.98;100.00
18813;BME280;9534;51.140;6.296;2023-04-15T11:32:03;100224.78;;;13.98;100.00
18813;BME280;9534;51.140;6.296;2023-04-15T11:36:09;100223.88;;;13.58;100.00
18813;BME280;9534;51.140;6.296;2023-04-15T11:40:14;100231.50;;;13.79;100.00
18813;BME280;9534;51.140;6.296;2023-04-15T11:44:21;100243.50;;;13.51;100.00
18813;BME280;9534;51.140;6.296;2023-04-15T11:48:27;100243.28;;;14.65;100.00
18813;BME280;9534;51.140;6.296;2023-04-15T11:52:33;100246.31;;;15.74;100.00
18813;BME280;9534;51.140;6.296;2023-04-15T11:56:36;100244.84;;;15.05;100.00
18813;BME280;9534;51.140;6.296;2023-04-15T12:00:40;100250.19;;;13.55;100.00
18813;BME280;9534;51.140;6.296;2023-04-15T12:04:43;100260.88;;;14.13;100.00
18813;BME280;9534;51.140;6.296;2023-04-15T12:08:59;100268.59;;;13.65;100.00
18813;BME280;9534;51.140;6.296;2023-04-15T12:13:05;100261.97;;;14.63;100.00
18813;BME280;9534;51.140;6.296;2023-04-15T12:17:10;100268.97;;;14.43;100.00
18813;BME280;9534;51.140;6.296;2023-04-15T12:21:14;100272.75;;;13.34;100.00
18813;BME280;9534;51.140;6.296;2023-04-15T12:25:18;100272.13;;;14.23;100.00
18813;BME280;9534;51.140;6.296;2023-04-15T12:29:35;100283.13;;;14.23;100.00
18813;BME280;9534;51.140;6.296;2023-04-15T12:33:39;100293.09;;;13.90;100.00
18813;BME280;9534;51.140;6.296;2023-04-15T12:37:42;100290.78;;;14.44;100.00
18813;BME280;9534;51.140;6.296;2023-04-15T12:41:47;100298.28;;;14.49;100.00
18813;BME280;9534;51.140;6.296;2023-04-15T12:45:51;100304.81;;;13.74;100.00
18813;BME280;9534;51.140;6.296;2023-04-15T12:49:54;100313.06;;;14.08;100.00
18813;BME280;9534;51.140;6.296;2023-04-15T12:53:57;100316.75;;;14.76;100.00
18813;BME280;9534;51.140;6.296;2023-04-15T12:58:02;100320.50;;;14.70;100.00
18813;BME280;9534;51.140;6.296;2023-04-15T13:02:05;100329.88;;;14.97;100.00
18813;BME280;9534;51.140;6.296;2023-04-15T13:06:09;100338.66;;;14.20;100.00
18813;BME280;9534;51.140;6.296;2023-04-15T13:10:12;100328.31;;;13.36;100.00
18813;BME280;9534;51.140;6.296;2023-04-15T13:14:16;100349.41;;;13.12;100.00
18813;BME280;9534;51.140;6.296;2023-04-15T13:18:20;100348.03;;;13.33;100.00
18813;BME280;9534;51.140;6.296;2023-04-15T13:22:24;100356.75;;;13.30;100.00
18813;BME280;9534;51.140;6.296;2023-04-15T13:26:27;100363.00;;;13.48;100.00
18813;BME280;9534;51.140;6.296;2023-04-15T13:30:33;100371.44;;;13.35;100.00
18813;BME280;9534;51.140;6.296;2023-04-15T13:34:36;100369.50;;;13.76;100.00
18813;BME280;9534;51.140;6.296;2023-04-15T13:38:40;100364.72;;;13.60;100.00
18813;BME280;9534;51.140;6.296;2023-04-15T13:42:43;100375.66;;;13.38;100.00
18813;BME280;9534;51.140;6.296;2023-04-15T13:46:47;100373.38;;;13.46;100.00
18813;BME280;9534;51.140;6.296;2023-04-15T13:50:51;100380.75;;;13.86;100.00
18813;BME280;9534;51.140;6.296;2023-04-15T13:54:54;100394.25;;;13.65;100.00
18813;BME280;9534;51.140;6.296;2023-04-15T13:59:17;100391.47;;;13.54;100.00
18813;BME280;9534;51.140;6.296;2023-04-15T14:03:21;100395.97;;;13.37;100.00
18813;BME280;9534;51.140;6.296;2023-04-15T14:07:25;100407.13;;;13.24;100.00
18813;BME280;9534;51.140;6.296;2023-04-15T14:11:28;100418.91;;;12.95;100.00
18813;BME280;9534;51.140;6.296;2023-04-15T14:15:31;100401.78;;;13.29;100.00
18813;BME280;9534;51.140;6.296;2023-04-15T14:19:36;100422.25;;;12.97;100.00
18813;BME280;9534;51.140;6.296;2023-04-15T14:23:39;100418.59;;;13.21;100.00
18813;BME280;9534;51.140;6.296;2023-04-15T14:27:43;100422.34;;;13.26;100.00
18813;BME280;9534;51.140;6.296;2023-04-15T14:31:47;100422.50;;;13.43;100.00
18813;BME280;9534;51.140;6.296;2023-04-15T14:36:12;100430.50;;;13.44;100.00
18813;BME280;9534;51.140;6.296;2023-04-15T14:40:15;100426.78;;;13.39;100.00
18813;BME280;9534;51.140;6.296;2023-04-15T14:44:18;100449.25;;;13.36;100.00
18813;BME280;9534;51.140;6.296;2023-04-15T14:48:21;100453.78;;;12.94;100.00
18813;BME280;9534;51.140;6.296;2023-04-15T14:52:26;100455.91;;;12.74;100.00
18813;BME280;9534;51.140;6.296;2023-04-15T14:56:29;100465.75;;;13.00;100.00
18813;BME280;9534;51.140;6.296;2023-04-15T15:00:32;100463.78;;;13.25;100.00
18813;BME280;9534;51.140;6.296;2023-04-15T15:04:36;100464.94;;;14.74;100.00
18813;BME280;9534;51.140;6.296;2023-04-15T15:08:40;100463.00;;;13.76;100.00
18813;BME280;9534;51.140;6.296;2023-04-15T15:12:43;100464.09;;;14.62;100.00
18813;BME280;9534;51.140;6.296;2023-04-15T15:16:47;100468.56;;;13.99;100.00
18813;BME280;9534;51.140;6.296;2023-04-15T15:20:50;100470.19;;;13.77;100.00
18813;BME280;9534;51.140;6.296;2023-04-15T15:24:55;100474.69;;;13.60;100.00
18813;BME280;9534;51.140;6.296;2023-04-15T15:29:00;100475.50;;;14.54;100.00
18813;BME280;9534;51.140;6.296;2023-04-15T15:33:03;100483.66;;;14.08;100.00
18813;BME280;9534;51.140;6.296;2023-04-15T15:37:07;100485.94;;;13.41;100.00
18813;BME280;9534;51.140;6.296;2023-04-15T15:41:11;100486.38;;;13.56;100.00
18813;BME280;9534;51.140;6.296;2023-04-15T15:45:16;100484.66;;;13.73;100.00
18813;BME280;9534;51.140;6.296;2023-04-15T15:49:19;100487.97;;;14.04;100.00
18813;BME280;9534;51.140;6.296;2023-04-15T15:53:22;100481.72;;;14.73;100.00
18813;BME280;9534;51.140;6.296;2023-04-15T15:57:28;100490.63;;;14.22;100.00
18813;BME280;9534;51.140;6.296;2023-04-15T16:01:31;100509.72;;;13.94;100.00
18813;BME280;9534;51.140;6.296;2023-04-15T16:05:34;100522.94;;;13.27;100.00
18813;BME280;9534;51.140;6.296;2023-04-15T16:09:37;100522.09;;;13.27;100.00
18813;BME280;9534;51.140;6.296;2023-04-15T16:13:43;100523.44;;;13.00;100.00
18813;BME280;9534;51.140;6.296;2023-04-15T16:17:47;100529.47;;;12.48;100.00
18813;BME280;9534;51.140;6.296;2023-04-15T16:21:50;100533.66;;;12.50;100.00
18813;BME280;9534;51.140;6.296;2023-04-15T16:25:53;100543.75;;;12.56;100.00
18813;BME280;9534;51.140;6.296;2023-04-15T16:29:58;100549.25;;;12.32;100.00
18813;BME280;9534;51.140;6.296;2023-04-15T16:34:01;100563.69;;;12.21;100.00
18813;BME280;9534;51.140;6.296;2023-04-15T16:38:04;100555.13;;;11.80;100.00
18813;BME280;9534;51.140;6.296;2023-04-15T16:42:08;100567.19;;;12.04;100.00
18813;BME280;9534;51.140;6.296;2023-04-15T16:46:12;100579.53;;;11.88;100.00
18813;BME280;9534;51.140;6.296;2023-04-15T16:50:16;100585.16;;;11.56;100.00
18813;BME280;9534;51.140;6.296;2023-04-15T16:54:19;100589.78;;;11.55;100.00
18813;BME280;9534;51.140;6.296;2023-04-15T16:58:22;100595.16;;;11.24;100.00
18813;BME280;9534;51.140;6.296;2023-04-15T17:02:28;100597.31;;;11.16;100.00
18813;BME280;9534;51.140;6.296;2023-04-15T17:06:32;100611.03;;;11.09;100.00
18813;BME280;9534;51.140;6.296;2023-04-15T17:10:35;100621.56;;;11.12;100.00
18813;BME280;9534;51.140;6.296;2023-04-15T17:14:38;100624.09;;;11.01;100.00
18813;BME280;9534;51.140;6.296;2023-04-15T17:18:43;100615.91;;;10.95;100.00
18813;BME280;9534;51.140;6.296;2023-04-15T17:22:53;100631.25;;;11.02;100.00
18813;BME280;9534;51.140;6.296;2023-04-15T17:26:58;100649.19;;;11.05;100.00
18813;BME280;9534;51.140;6.296;2023-04-15T17:31:08;100651.06;;;10.91;100.00
18813;BME280;9534;51.140;6.296;2023-04-15T17:35:33;100657.59;;;10.90;100.00
18813;BME280;9534;51.140;6.296;2023-04-15T17:39:56;100656.16;;;10.75;100.00
18813;BME280;9534;51.140;6.296;2023-04-15T17:44:19;100662.03;;;10.72;100.00
18813;BME280;9534;51.140;6.296;2023-04-15T17:48:46;100665.81;;;10.71;100.00
18813;BME280;9534;51.140;6.296;2023-04-15T17:53:11;100662.44;;;10.56;100.00
18813;BME280;9534;51.140;6.296;2023-04-15T17:57:34;100678.88;;;10.56;100.00
18813;BME280;9534;51.140;6.296;2023-04-15T18:01:57;100672.72;;;10.41;100.00
18813;BME280;9534;51.140;6.296;2023-04-15T18:06:21;100681.34;;;10.38;100.00
18813;BME280;9534;51.140;6.296;2023-04-15T18:10:46;100688.94;;;10.36;100.00
18813;BME280;9534;51.140;6.296;2023-04-15T18:15:10;100706.16;;;10.23;100.00
18813;BME280;9534;51.140;6.296;2023-04-15T18:19:35;100699.63;;;10.18;100.00
18813;BME280;9534;51.140;6.296;2023-04-15T18:23:38;100712.47;;;10.17;100.00
18813;BME280;9534;51.140;6.296;2023-04-15T18:27:42;100721.28;;;10.13;100.00
18813;BME280;9534;51.140;6.296;2023-04-15T18:31:46;100725.44;;;10.09;100.00
18813;BME280;9534;51.140;6.296;2023-04-15T18:35:49;100734.69;;;10.08;100.00
18813;BME280;9534;51.140;6.296;2023-04-15T18:39:52;100747.31;;;10.09;100.00
18813;BME280;9534;51.140;6.296;2023-04-15T18:43:57;100762.63;;;9.97;100.00
18813;BME280;9534;51.140;6.296;2023-04-15T18:48:00;100765.50;;;9.83;100.00
18813;BME280;9534;51.140;6.296;2023-04-15T18:52:04;100778.63;;;9.66;100.00
18813;BME280;9534;51.140;6.296;2023-04-15T18:56:07;100789.06;;;9.56;100.00
18813;BME280;9534;51.140;6.296;2023-04-15T19:00:13;100806.13;;;9.31;100.00
18813;BME280;9534;51.140;6.296;2023-04-15T19:04:16;100827.84;;;9.18;100.00
18813;BME280;9534;51.140;6.296;2023-04-15T19:08:21;100836.78;;;9.05;100.00
18813;BME280;9534;51.140;6.296;2023-04-15T19:12:24;100844.00;;;8.92;100.00
18813;BME280;9534;51.140;6.296;2023-04-15T19:16:28;100857.00;;;8.90;100.00
18813;BME280;9534;51.140;6.296;2023-04-15T19:20:32;100863.00;;;8.85;100.00
18813;BME280;9534;51.140;6.296;2023-04-15T19:24:40;100874.81;;;8.71;100.00
18813;BME280;9534;51.140;6.296;2023-04-15T19:28:43;100882.28;;;8.63;100.00
18813;BME280;9534;51.140;6.296;2023-04-15T19:32:48;100898.97;;;8.54;100.00
18813;BME280;9534;51.140;6.296;2023-04-15T19:36:51;100900.66;;;8.55;100.00
18813;BME280;9534;51.140;6.296;2023-04-15T19:40:54;100916.09;;;8.48;100.00
18813;BME280;9534;51.140;6.296;2023-04-15T19:44:58;100929.34;;;8.36;100.00
18813;BME280;9534;51.140;6.296;2023-04-15T19:49:02;100941.19;;;8.29;100.00
18813;BME280;9534;51.140;6.296;2023-04-15T19:53:07;100942.25;;;8.28;100.00
18813;BME280;9534;51.140;6.296;2023-04-15T19:57:10;100947.31;;;8.31;100.00
18813;BME280;9534;51.140;6.296;2023-04-15T20:01:13;100956.00;;;8.26;100.00
18813;BME280;9534;51.140;6.296;2023-04-15T20:05:17;100957.56;;;8.29;100.00
18813;BME280;9534;51.140;6.296;2023-04-15T20:09:21;100954.31;;;8.25;100.00
18813;BME280;9534;51.140;6.296;2023-04-15T20:13:24;100965.22;;;8.25;100.00
18813;BME280;9534;51.140;6.296;2023-04-15T20:17:31;100963.34;;;8.26;100.00
18813;BME280;9534;51.140;6.296;2023-04-15T20:21:35;100964.75;;;8.22;100.00
18813;BME280;9534;51.140;6.296;2023-04-15T20:25:41;100964.03;;;8.28;100.00
18813;BME280;9534;51.140;6.296;2023-04-15T20:29:44;100973.25;;;8.27;100.00
18813;BME280;9534;51.140;6.296;2023-04-15T20:33:47;100974.44;;;8.24;100.00
18813;BME280;9534;51.140;6.296;2023-04-15T20:37:51;100978.47;;;8.14;100.00
18813;BME280;9534;51.140;6.296;2023-04-15T20:41:54;100965.50;;;8.16;100.00
18813;BME280;9534;51.140;6.296;2023-04-15T20:45:58;100976.69;;;8.06;100.00
18813;BME280;9534;51.140;6.296;2023-04-15T20:50:18;100975.94;;;8.12;100.00
18813;BME280;9534;51.140;6.296;2023-04-15T20:54:23;100984.13;;;8.12;100.00
18813;BME280;9534;51.140;6.296;2023-04-15T20:58:26;100980.44;;;8.05;100.00
18813;BME280;9534;51.140;6.296;2023-04-15T21:02:29;100982.97;;;8.07;100.00
18813;BME280;9534;51.140;6.296;2023-04-15T21:06:33;100993.41;;;8.03;100.00
18813;BME280;9534;51.140;6.296;2023-04-15T21:10:38;100990.50;;;8.05;100.00
18813;BME280;9534;51.140;6.296;2023-04-15T21:14:41;100992.09;;;7.99;100.00
18813;BME280;9534;51.140;6.296;2023-04-15T21:18:44;100996.97;;;8.04;100.00
18813;BME280;9534;51.140;6.296;2023-04-15T21:22:48;100996.69;;;7.99;100.00
18813;BME280;9534;51.140;6.296;2023-04-15T21:26:52;101008.97;;;7.95;100.00
18813;BME280;9534;51.140;6.296;2023-04-15T21:30:55;101015.47;;;7.94;100.00
18813;BME280;9534;51.140;6.296;2023-04-15T21:34:59;101016.19;;;7.88;100.00
18813;BME280;9534;51.140;6.296;2023-04-15T21:39:04;101024.66;;;7.93;100.00